sensor_id;sensor_type;location;lat;lon;timestamp;temperature;humidity
41080;DHT22;26826;50.718;7.114;2022-09-09T00:00:15;17.20;99.90
41080;DHT22;26826;50.718;7.114;2022-09-09T00:10:32;17.30;99.90
41080;DHT22;26826;50.718;7.114;2022-09-09T00:30:47;16.80;99.90
41080;DHT22;26826;50.718;7.114;2022-09-09T00:40:58;16.50;99.90
41080;DHT22;26826;50.718;7.114;2022-09-09T00:51:13;16.40;99.90
41080;DHT22;26826;50.718;7.114;2022-09-09T01:01:16;16.40;99.90
41080;DHT22;26826;50.718;7.114;2022-09-09T01:11:26;16.40;99.90
41080;DHT22;26826;50.718;7.114;2022-09-09T01:21:39;16.50;99.90
41080;DHT22;26826;50.718;7.114;2022-09-09T01:31:56;16.50;99.90
41080;DHT22;26826;50.718;7.114;2022-09-09T01:41:57;16.50;99.90
41080;DHT22;26826;50.718;7.114;2022-09-09T01:51:58;16.50;99.90
41080;DHT22;26826;50.718;7.114;2022-09-09T02:02:32;16.70;99.90
41080;DHT22;26826;50.718;7.114;2022-09-09T02:12:40;16.80;99.90
41080;DHT22;26826;50.718;7.114;2022-09-09T02:22:41;16.90;99.90
41080;DHT22;26826;50.718;7.114;2022-09-09T02:32:45;16.90;99.90
41080;DHT22;26826;50.718;7.114;2022-09-09T02:42:48;17.00;99.90
41080;DHT22;26826;50.718;7.114;2022-09-09T02:53:04;17.00;99.90
41080;DHT22;26826;50.718;7.114;2022-09-09T03:03:08;17.10;99.90
41080;DHT22;26826;50.718;7.114;2022-09-09T03:13:11;17.10;99.90
41080;DHT22;26826;50.718;7.114;2022-09-09T03:23:13;17.00;99.90
41080;DHT22;26826;50.718;7.114;2022-09-09T03:33:13;16.80;99.90
41080;DHT22;26826;50.718;7.114;2022-09-09T03:43:15;16.80;99.90
41080;DHT22;26826;50.718;7.114;2022-09-09T03:53:18;16.90;99.90
41080;DHT22;26826;50.718;7.114;2022-09-09T04:03:19;16.80;99.90
41080;DHT22;26826;50.718;7.114;2022-09-09T04:13:20;16.80;99.90
41080;DHT22;26826;50.718;7.114;2022-09-09T04:23:20;16.80;99.90
41080;DHT22;26826;50.718;7.114;2022-09-09T04:33:21;16.70;99.90
41080;DHT22;26826;50.718;7.114;2022-09-09T04:43:22;16.70;99.90
41080;DHT22;26826;50.718;7.114;2022-09-09T04:53:23;16.70;99.90
41080;DHT22;26826;50.718;7.114;2022-09-09T05:03:25;16.60;99.90
41080;DHT22;26826;50.718;7.114;2022-09-09T05:13:27;16.50;99.90
41080;DHT22;26826;50.718;7.114;2022-09-09T05:23:28;16.50;99.90
41080;DHT22;26826;50.718;7.114;2022-09-09T05:33:28;16.60;99.90
41080;DHT22;26826;50.718;7.114;2022-09-09T05:43:29;16.70;99.90
41080;DHT22;26826;50.718;7.114;2022-09-09T05:53:30;16.60;99.90
41080;DHT22;26826;50.718;7.114;2022-09-09T06:03:39;16.90;99.90
41080;DHT22;26826;50.718;7.114;2022-09-09T06:13:40;16.90;99.90
41080;DHT22;26826;50.718;7.114;2022-09-09T06:23:40;17.10;99.90
41080;DHT22;26826;50.718;7.114;2022-09-09T06:33:42;17.10;99.90
41080;DHT22;26826;50.718;7.114;2022-09-09T06:43:43;17.50;99.90
41080;DHT22;26826;50.718;7.114;2022-09-09T06:53:45;18.00;99.90
41080;DHT22;26826;50.718;7.114;2022-09-09T07:03:48;17.90;99.90
41080;DHT22;26826;50.718;7.114;2022-09-09T07:13:50;18.50;99.90
41080;DHT22;26826;50.718;7.114;2022-09-09T07:23:50;18.80;99.90
41080;DHT22;26826;50.718;7.114;2022-09-09T07:33:51;19.20;99.90
41080;DHT22;26826;50.718;7.114;2022-09-09T07:43:52;19.20;99.90
41080;DHT22;26826;50.718;7.114;2022-09-09T07:53:56;19.00;99.90
41080;DHT22;26826;50.718;7.114;2022-09-09T08:04:03;19.30;99.90
41080;DHT22;26826;50.718;7.114;2022-09-09T08:14:05;19.10;99.90
41080;DHT22;26826;50.718;7.114;2022-09-09T08:24:08;19.10;99.90
41080;DHT22;26826;50.718;7.114;2022-09-09T08:34:09;19.20;99.90
41080;DHT22;26826;50.718;7.114;2022-09-09T08:55:02;20.10;99.90
41080;DHT22;26826;50.718;7.114;2022-09-09T09:05:23;20.20;99.90
41080;DHT22;26826;50.718;7.114;2022-09-09T09:15:37;20.20;99.90
41080;DHT22;26826;50.718;7.114;2022-09-09T09:25:41;20.90;99.90
41080;DHT22;26826;50.718;7.114;2022-09-09T09:35:42;20.60;99.90
41080;DHT22;26826;50.718;7.114;2022-09-09T09:45:44;20.40;99.90
41080;DHT22;26826;50.718;7.114;2022-09-09T09:55:54;20.10;99.90
41080;DHT22;26826;50.718;7.114;2022-09-09T10:05:55;20.20;99.90
41080;DHT22;26826;50.718;7.114;2022-09-09T10:26:49;21.60;99.90
41080;DHT22;26826;50.718;7.114;2022-09-09T10:36:53;21.30;99.90
41080;DHT22;26826;50.718;7.114;2022-09-09T10:57:22;20.60;99.90
41080;DHT22;26826;50.718;7.114;2022-09-09T11:07:34;20.60;99.90
41080;DHT22;26826;50.718;7.114;2022-09-09T11:17:47;20.90;99.90
41080;DHT22;26826;50.718;7.114;2022-09-09T11:28:14;21.30;99.90
41080;DHT22;26826;50.718;7.114;2022-09-09T11:38:46;22.10;99.90
41080;DHT22;26826;50.718;7.114;2022-09-09T11:49:01;23.20;99.90
41080;DHT22;26826;50.718;7.114;2022-09-09T11:59:05;23.90;98.60
41080;DHT22;26826;50.718;7.114;2022-09-09T12:19:26;22.80;99.40
41080;DHT22;26826;50.718;7.114;2022-09-09T12:29:37;22.30;99.70
41080;DHT22;26826;50.718;7.114;2022-09-09T12:40:00;22.30;99.60
41080;DHT22;26826;50.718;7.114;2022-09-09T12:50:02;22.30;99.90
41080;DHT22;26826;50.718;7.114;2022-09-09T13:00:21;22.10;99.90
41080;DHT22;26826;50.718;7.114;2022-09-09T13:10:26;21.50;99.90
41080;DHT22;26826;50.718;7.114;2022-09-09T13:20:29;21.70;99.90
41080;DHT22;26826;50.718;7.114;2022-09-09T13:30:36;21.60;99.90
41080;DHT22;26826;50.718;7.114;2022-09-09T13:40:38;21.10;99.90
41080;DHT22;26826;50.718;7.114;2022-09-09T13:50:39;21.40;99.90
41080;DHT22;26826;50.718;7.114;2022-09-09T14:00:41;21.80;99.90
41080;DHT22;26826;50.718;7.114;2022-09-09T14:10:43;21.80;99.90
41080;DHT22;26826;50.718;7.114;2022-09-09T14:20:44;22.10;99.90
41080;DHT22;26826;50.718;7.114;2022-09-09T14:30:45;21.60;99.90
41080;DHT22;26826;50.718;7.114;2022-09-09T14:40:46;22.70;99.90
41080;DHT22;26826;50.718;7.114;2022-09-09T14:50:47;22.90;99.90
41080;DHT22;26826;50.718;7.114;2022-09-09T15:00:47;23.10;99.90
41080;DHT22;26826;50.718;7.114;2022-09-09T15:10:48;23.00;99.90
41080;DHT22;26826;50.718;7.114;2022-09-09T15:20:50;22.20;99.90
41080;DHT22;26826;50.718;7.114;2022-09-09T15:30:52;21.30;99.90
41080;DHT22;26826;50.718;7.114;2022-09-09T15:40:54;21.30;99.90
41080;DHT22;26826;50.718;7.114;2022-09-09T15:51:03;20.90;99.90
41080;DHT22;26826;50.718;7.114;2022-09-09T16:01:08;19.90;99.90
41080;DHT22;26826;50.718;7.114;2022-09-09T16:11:11;20.00;99.90
41080;DHT22;26826;50.718;7.114;2022-09-09T16:31:27;20.20;99.90
41080;DHT22;26826;50.718;7.114;2022-09-09T16:41:29;20.10;99.90
41080;DHT22;26826;50.718;7.114;2022-09-09T16:51:33;19.90;99.90
41080;DHT22;26826;50.718;7.114;2022-09-09T17:01:35;19.40;99.90
41080;DHT22;26826;50.718;7.114;2022-09-09T17:11:41;19.20;99.90
41080;DHT22;26826;50.718;7.114;2022-09-09T17:21:42;19.00;99.90
41080;DHT22;26826;50.718;7.114;2022-09-09T17:31:43;19.00;99.90
41080;DHT22;26826;50.718;7.114;2022-09-09T17:41:43;18.40;99.90
41080;DHT22;26826;50.718;7.114;2022-09-09T17:51:44;18.20;99.90
41080;DHT22;26826;50.718;7.114;2022-09-09T18:01:47;18.10;99.90
41080;DHT22;26826;50.718;7.114;2022-09-09T18:11:51;18.10;99.90
41080;DHT22;26826;50.718;7.114;2022-09-09T18:21:53;18.00;99.90
41080;DHT22;26826;50.718;7.114;2022-09-09T18:31:55;17.90;99.90
41080;DHT22;26826;50.718;7.114;2022-09-09T18:41:58;17.90;99.90
41080;DHT22;26826;50.718;7.114;2022-09-09T18:51:59;17.70;99.90
41080;DHT22;26826;50.718;7.114;2022-09-09T19:02:01;17.50;99.90
41080;DHT22;26826;50.718;7.114;2022-09-09T19:12:22;17.40;99.90
41080;DHT22;26826;50.718;7.114;2022-09-09T19:22:23;17.20;99.90
41080;DHT22;26826;50.718;7.114;2022-09-09T19:32:24;17.20;99.90
41080;DHT22;26826;50.718;7.114;2022-09-09T19:42:24;17.00;99.90
41080;DHT22;26826;50.718;7.114;2022-09-09T19:52:25;17.10;99.90
41080;DHT22;26826;50.718;7.114;2022-09-09T20:02:25;17.00;99.90
41080;DHT22;26826;50.718;7.114;2022-09-09T20:12:27;16.90;99.90
41080;DHT22;26826;50.718;7.114;2022-09-09T20:22:28;16.70;99.90
41080;DHT22;26826;50.718;7.114;2022-09-09T20:32:28;16.70;99.90
41080;DHT22;26826;50.718;7.114;2022-09-09T20:42:29;16.70;99.90
41080;DHT22;26826;50.718;7.114;2022-09-09T20:52:30;16.60;99.90
41080;DHT22;26826;50.718;7.114;2022-09-09T21:02:30;16.70;99.90
41080;DHT22;26826;50.718;7.114;2022-09-09T21:12:31;16.60;99.90
41080;DHT22;26826;50.718;7.114;2022-09-09T21:22:31;16.70;99.90
41080;DHT22;26826;50.718;7.114;2022-09-09T21:32:32;16.70;99.90
41080;DHT22;26826;50.718;7.114;2022-09-09T21:42:32;16.70;99.90
41080;DHT22;26826;50.718;7.114;2022-09-09T21:52:33;16.80;99.90
41080;DHT22;26826;50.718;7.114;2022-09-09T22:02:34;16.70;99.90
41080;DHT22;26826;50.718;7.114;2022-09-09T22:12:36;16.50;99.90
41080;DHT22;26826;50.718;7.114;2022-09-09T22:22:37;16.60;99.90
41080;DHT22;26826;50.718;7.114;2022-09-09T22:32:38;16.80;99.90
41080;DHT22;26826;50.718;7.114;2022-09-09T22:42:40;16.90;99.90
41080;DHT22;26826;50.718;7.114;2022-09-09T22:52:41;16.80;99.90
41080;DHT22;26826;50.718;7.114;2022-09-09T23:02:41;16.60;99.90
41080;DHT22;26826;50.718;7.114;2022-09-09T23:12:42;16.50;99.90
41080;DHT22;26826;50.718;7.114;2022-09-09T23:22:43;16.40;99.90
41080;DHT22;26826;50.718;7.114;2022-09-09T23:32:43;16.30;99.90
41080;DHT22;26826;50.718;7.114;2022-09-09T23:42:46;16.10;99.90
41080;DHT22;26826;50.718;7.114;2022-09-09T23:52:46;16.10;99.90
